createdAt,value
2022-10-18T00:01:09.945Z,102135.59
2022-10-18T00:03:39.030Z,102136.66
2022-10-18T00:06:09.255Z,102141.22
2022-10-18T00:08:39.696Z,102138.28
2022-10-18T00:11:08.497Z,102136.41
2022-10-18T00:13:37.115Z,102135.84
2022-10-18T00:16:07.354Z,102139.88
2022-10-18T00:18:35.488Z,102141.50
2022-10-18T00:21:06.431Z,102128.34
2022-10-18T00:23:36.320Z,102141.75
2022-10-18T00:26:08.686Z,102131.28
2022-10-18T00:28:39.176Z,102123.53
2022-10-18T00:31:12.361Z,102126.19
2022-10-18T00:33:40.886Z,102112.25
2022-10-18T00:36:09.330Z,102115.19
2022-10-18T00:38:37.993Z,102109.56
2022-10-18T00:41:10.007Z,102105.25
2022-10-18T00:43:53.710Z,102102.31
2022-10-18T00:46:22.234Z,102104.19
2022-10-18T00:48:51.294Z,102104.19
2022-10-18T00:51:22.117Z,102104.72
2022-10-18T00:53:50.702Z,102103.94
2022-10-18T00:56:20.437Z,102098.81
2022-10-18T00:58:50.399Z,102094.50
2022-10-18T01:01:18.883Z,102093.72
2022-10-18T01:03:47.260Z,102096.66
2022-10-18T01:06:15.488Z,102087.53
2022-10-18T01:09:08.906Z,102082.97
2022-10-18T01:11:59.636Z,102083.22
2022-10-18T01:14:49.436Z,102086.47
2022-10-18T01:17:25.719Z,102077.06
2022-10-18T01:20:42.347Z,102078.13
2022-10-18T01:23:16.870Z,102083.25
2022-10-18T01:25:56.143Z,102080.03
2022-10-18T01:28:40.513Z,102071.72
2022-10-18T01:31:13.261Z,102075.44
2022-10-18T01:33:44.374Z,102075.44
2022-10-18T01:36:19.767Z,102059.63
2022-10-18T01:38:50.886Z,102071.94
2022-10-18T01:41:21.670Z,102070.91
2022-10-18T01:43:53.864Z,102067.94
2022-10-18T01:46:25.934Z,102070.34
2022-10-18T01:48:55.412Z,102073.06
2022-10-18T01:51:26.219Z,102066.56
2022-10-18T01:53:54.638Z,102064.41
2022-10-18T01:56:33.795Z,102074.09
2022-10-18T01:59:14.284Z,102069.00
2022-10-18T02:01:53.570Z,102072.78
2022-10-18T02:04:30.875Z,102074.41
2022-10-18T02:07:07.358Z,102071.94
2022-10-18T02:09:39.743Z,102068.75
2022-10-18T02:12:11.875Z,102068.47
2022-10-18T02:14:41.157Z,102067.94
2022-10-18T02:17:13.578Z,102074.66
2022-10-18T02:19:45.310Z,102058.81
2022-10-18T02:22:15.441Z,102063.38
2022-10-18T02:24:46.143Z,102065.78
2022-10-18T02:27:14.323Z,102062.34
2022-10-18T02:29:43.512Z,102062.84
2022-10-18T02:32:18.834Z,102066.06
2022-10-18T02:34:51.720Z,102064.47
2022-10-18T02:37:20.858Z,102053.47
2022-10-18T02:39:52.076Z,102060.97
2022-10-18T02:42:20.121Z,102052.91
2022-10-18T02:44:48.188Z,102046.19
2022-10-18T02:47:17.680Z,102048.63
2022-10-18T02:49:45.976Z,102040.31
2022-10-18T02:52:14.718Z,102042.44
2022-10-18T02:54:42.852Z,102047.56
2022-10-18T02:57:10.895Z,102040.81
2022-10-18T02:59:39.101Z,102044.34
2022-10-18T03:02:07.201Z,102051.59
2022-10-18T03:04:36.665Z,102055.09
2022-10-18T03:07:04.871Z,102047.84
2022-10-18T03:09:33.134Z,102047.53
2022-10-18T03:12:01.336Z,102059.09
2022-10-18T03:14:29.523Z,102055.88
2022-10-18T03:16:57.652Z,102050.50
2022-10-18T03:19:25.747Z,102049.44
2022-10-18T03:21:55.767Z,102048.63
2022-10-18T03:24:23.889Z,102040.84
2022-10-18T03:26:52.056Z,102043.25
2022-10-18T03:29:20.216Z,102047.28
2022-10-18T03:31:48.643Z,102047.81
2022-10-18T03:34:17.873Z,102047.81
2022-10-18T03:36:46.106Z,102041.66
2022-10-18T03:39:15.818Z,102044.59
2022-10-18T03:41:43.846Z,102034.66
2022-10-18T03:44:12.030Z,102040.31
2022-10-18T03:46:40.266Z,102037.88
2022-10-18T03:49:08.433Z,102030.09
2022-10-18T03:51:36.510Z,102031.97
2022-10-18T03:54:05.221Z,102040.56
2022-10-18T03:56:34.882Z,102032.50
2022-10-18T03:59:04.597Z,102031.72
2022-10-18T04:01:32.939Z,102042.44
2022-10-18T04:04:01.238Z,102036.25
2022-10-18T04:06:29.441Z,102025.78
2022-10-18T04:08:57.572Z,102038.13
2022-10-18T04:11:25.690Z,102034.91
2022-10-18T04:13:55.163Z,102038.69
2022-10-18T04:16:23.413Z,102032.47
2022-10-18T04:18:51.584Z,102036.25
2022-10-18T04:21:19.858Z,102035.44
2022-10-18T04:23:49.027Z,102034.38
2022-10-18T04:26:17.679Z,102040.28
2022-10-18T04:28:46.484Z,102040.31
2022-10-18T04:31:16.052Z,102030.91
2022-10-18T04:33:44.164Z,102031.19
2022-10-18T04:36:12.273Z,102026.63
2022-10-18T04:38:40.444Z,102019.91
2022-10-18T04:41:08.516Z,102030.94
2022-10-18T04:43:36.658Z,102029.59
2022-10-18T04:46:05.002Z,102028.50
2022-10-18T04:48:34.717Z,102024.19
2022-10-18T04:51:02.800Z,102023.94
2022-10-18T04:53:30.950Z,102018.31
2022-10-18T04:55:59.180Z,102022.88
2022-10-18T04:58:27.379Z,102018.00
2022-10-18T05:00:55.536Z,102018.84
2022-10-18T05:03:23.817Z,102024.75
2022-10-18T05:06:08.278Z,102035.50
2022-10-18T05:08:37.037Z,102038.69
2022-10-18T05:11:05.877Z,102031.44
2022-10-18T05:13:34.515Z,102032.78
2022-10-18T05:16:03.376Z,102036.00
2022-10-18T05:18:31.897Z,102033.88
2022-10-18T05:21:01.393Z,102038.47
2022-10-18T05:23:29.712Z,102031.69
2022-10-18T05:26:04.255Z,102037.50
2022-10-18T05:28:41.148Z,102037.97
2022-10-18T05:31:11.700Z,102031.22
2022-10-18T05:33:39.951Z,102033.91
2022-10-18T05:36:10.362Z,102032.28
2022-10-18T05:38:42.160Z,102033.34
2022-10-18T05:41:11.290Z,102022.75
2022-10-18T05:43:39.505Z,102031.66
2022-10-18T05:46:13.616Z,102031.81
2022-10-18T05:48:43.229Z,102040.69
2022-10-18T05:51:12.991Z,102037.41
2022-10-18T05:53:41.180Z,102030.31
2022-10-18T05:56:11.897Z,102043.78
2022-10-18T05:58:40.223Z,102037.06
2022-10-18T06:01:08.811Z,102038.31
2022-10-18T06:03:37.498Z,102045.56
2022-10-18T06:06:08.359Z,102050.25
2022-10-18T06:08:38.942Z,102040.25
2022-10-18T06:11:11.701Z,102040.28
2022-10-18T06:13:43.403Z,102042.56
2022-10-18T06:16:12.918Z,102057.22
2022-10-18T06:18:41.591Z,102043.25
2022-10-18T06:21:10.712Z,102044.47
2022-10-18T06:23:40.251Z,102051.13
2022-10-18T06:26:11.207Z,102042.44
2022-10-18T06:28:39.612Z,102053.41
2022-10-18T06:31:08.031Z,102048.84
2022-10-18T06:33:37.067Z,102045.16
2022-10-18T06:36:07.305Z,102048.81
2022-10-18T06:38:35.920Z,102047.72
2022-10-18T06:41:06.194Z,102046.84
2022-10-18T06:43:34.905Z,102051.75
2022-10-18T06:46:05.297Z,102048.34
2022-10-18T06:48:35.029Z,102049.28
2022-10-18T06:51:05.188Z,102047.59
2022-10-18T06:53:36.255Z,102043.09
2022-10-18T06:56:09.195Z,102041.16
2022-10-18T06:58:37.799Z,102048.44
2022-10-18T07:01:09.880Z,102057.97
2022-10-18T07:03:38.488Z,102044.66
2022-10-18T07:06:08.123Z,102040.88
2022-10-18T07:08:37.040Z,102046.97
2022-10-18T07:11:05.421Z,102045.50
2022-10-18T07:13:36.031Z,102036.84
2022-10-18T07:16:06.826Z,102052.25
2022-10-18T07:18:35.696Z,102051.34
2022-10-18T07:21:05.043Z,102052.41
2022-10-18T07:23:34.311Z,102041.63
2022-10-18T07:26:03.098Z,102044.00
2022-10-18T07:28:31.901Z,102053.56
2022-10-18T07:31:07.200Z,102043.47
2022-10-18T07:33:35.340Z,102046.94
2022-10-18T07:36:03.821Z,102043.75
2022-10-18T07:38:32.048Z,102035.50
2022-10-18T07:41:01.097Z,102029.31
2022-10-18T07:43:29.676Z,102036.19
2022-10-18T07:45:59.562Z,102032.47
2022-10-18T07:48:29.612Z,102027.59
2022-10-18T07:51:00.875Z,102032.84
2022-10-18T07:53:29.379Z,102032.03
2022-10-18T07:56:00.198Z,102031.41
2022-10-18T07:58:29.691Z,102025.38
2022-10-18T08:00:58.011Z,102024.50
2022-10-18T08:03:26.252Z,102025.63
2022-10-18T08:05:56.902Z,102019.19
2022-10-18T08:08:25.755Z,102019.88
2022-10-18T08:10:54.034Z,102012.69
2022-10-18T08:13:22.553Z,102018.88
2022-10-18T08:15:50.657Z,102024.91
2022-10-18T08:18:18.736Z,102021.50
2022-10-18T08:20:47.606Z,102003.34
2022-10-18T08:23:17.136Z,102011.09
2022-10-18T08:25:45.241Z,102010.50
2022-10-18T08:28:13.943Z,101999.69
2022-10-18T08:30:42.032Z,102004.75
2022-10-18T08:33:13.320Z,101994.34
2022-10-18T08:35:41.502Z,101996.41
2022-10-18T08:38:16.476Z,101987.41
2022-10-18T08:40:48.154Z,101996.59
2022-10-18T08:43:26.643Z,101983.19
2022-10-18T08:45:55.866Z,101985.38
2022-10-18T08:48:30.934Z,101987.31
2022-10-18T08:50:59.955Z,101978.09
2022-10-18T08:53:36.164Z,102001.84
2022-10-18T08:56:14.980Z,101977.00
2022-10-18T08:58:45.167Z,101972.00
2022-10-18T09:01:29.725Z,101978.47
2022-10-18T09:04:15.200Z,101988.25
2022-10-18T09:06:53.932Z,101972.06
2022-10-18T09:09:32.202Z,101977.13
2022-10-18T09:12:15.183Z,101974.53
2022-10-18T09:15:03.694Z,101971.09
2022-10-18T09:17:43.005Z,101967.78
2022-10-18T09:20:22.449Z,101963.81
2022-10-18T09:22:56.819Z,101960.38
2022-10-18T09:25:27.657Z,101974.69
2022-10-18T09:28:07.714Z,101968.97
2022-10-18T09:30:46.841Z,101955.31
2022-10-18T09:33:27.363Z,101959.81
2022-10-18T09:35:58.829Z,101945.81
2022-10-18T09:38:32.196Z,101956.78
2022-10-18T09:41:03.698Z,101950.09
2022-10-18T09:43:43.366Z,101954.84
2022-10-18T09:46:12.016Z,101948.34
2022-10-18T09:48:46.997Z,101946.69
2022-10-18T09:51:22.177Z,101939.66
2022-10-18T09:54:17.187Z,101937.09
2022-10-18T09:56:50.162Z,101933.81
2022-10-18T09:59:37.233Z,101929.47
2022-10-18T10:02:05.943Z,101925.69
2022-10-18T10:04:34.255Z,101923.13
2022-10-18T10:07:03.459Z,101918.84
2022-10-18T10:09:37.776Z,101913.72
2022-10-18T10:12:06.561Z,101910.81
2022-10-18T10:14:45.276Z,101901.75
2022-10-18T10:17:26.090Z,101901.59
2022-10-18T10:20:00.405Z,101894.06
2022-10-18T10:22:33.304Z,101889.47
2022-10-18T10:25:01.457Z,101890.44
2022-10-18T10:27:34.454Z,101888.50
2022-10-18T10:30:07.362Z,101885.78
2022-10-18T10:32:47.617Z,101889.28
2022-10-18T10:35:33.813Z,101882.28
2022-10-18T10:38:24.907Z,101878.63
2022-10-18T10:40:53.510Z,101873.50
2022-10-18T10:43:37.003Z,101870.16
2022-10-18T10:46:10.931Z,101865.84
2022-10-18T10:48:49.140Z,101868.09
2022-10-18T10:51:20.439Z,101862.97
2022-10-18T10:53:52.771Z,101861.06
2022-10-18T10:56:26.863Z,101858.97
2022-10-18T10:58:57.093Z,101858.31
2022-10-18T11:01:30.872Z,101851.00
2022-10-18T11:04:01.385Z,101839.69
2022-10-18T11:06:50.610Z,101839.22
2022-10-18T11:09:32.051Z,101840.78
2022-10-18T11:12:12.555Z,101836.28
2022-10-18T11:14:45.950Z,101829.94
2022-10-18T11:17:23.995Z,101831.94
2022-10-18T11:20:04.093Z,101821.06
2022-10-18T11:22:37.428Z,101814.38
2022-10-18T11:25:06.715Z,101808.94
2022-10-18T11:27:41.906Z,101807.22
2022-10-18T11:30:31.350Z,101799.97
2022-10-18T11:33:11.839Z,101790.66
2022-10-18T11:35:47.255Z,101789.38
2022-10-18T11:38:31.575Z,101786.69
2022-10-18T11:41:22.622Z,101792.84
2022-10-18T11:44:02.651Z,101783.81
2022-10-18T11:46:46.425Z,101779.50
2022-10-18T11:49:32.303Z,101774.09
2022-10-18T11:52:09.711Z,101772.50
2022-10-18T11:55:16.788Z,101771.19
2022-10-18T11:57:51.281Z,101767.72
2022-10-18T12:00:28.946Z,101770.81
2022-10-18T12:03:27.923Z,101767.94
2022-10-18T12:06:03.088Z,101769.22
2022-10-18T12:08:36.644Z,101770.81
2022-10-18T12:11:10.893Z,101773.84
2022-10-18T12:13:44.790Z,101765.06
2022-10-18T12:16:13.641Z,101768.09
2022-10-18T12:18:50.392Z,101765.56
2022-10-18T12:21:25.770Z,101752.47
2022-10-18T12:23:58.645Z,101748.97
2022-10-18T12:26:29.429Z,101745.41
2022-10-18T12:29:10.165Z,101740.94
2022-10-18T12:31:43.301Z,101736.38
2022-10-18T12:34:28.835Z,101730.03
2022-10-18T12:37:20.906Z,101733.88
2022-10-18T12:42:44.095Z,101715.22
2022-10-18T12:45:33.368Z,101716.38
2022-10-18T12:48:03.118Z,101708.69
2022-10-18T12:50:35.229Z,101707.41
2022-10-18T12:53:09.191Z,101706.88
2022-10-18T12:55:39.626Z,101699.41
2022-10-18T12:58:34.725Z,101696.72
2022-10-18T13:01:08.625Z,101693.41
2022-10-18T13:03:59.268Z,101690.25
2022-10-18T13:06:47.493Z,101688.19
2022-10-18T13:09:22.728Z,101689.78
2022-10-18T13:11:52.748Z,101693.25
2022-10-18T13:15:05.781Z,101681.19
2022-10-18T13:17:48.922Z,101674.66
2022-10-18T13:20:27.303Z,101679.59
2022-10-18T13:25:55.723Z,101668.91
2022-10-18T13:28:32.249Z,101673.84
2022-10-18T13:31:11.438Z,101663.16
2022-10-18T13:33:41.469Z,101661.56
2022-10-18T13:36:26.221Z,101663.66
2022-10-18T13:39:06.058Z,101661.28
2022-10-18T13:42:14.006Z,101649.81
2022-10-18T13:44:44.860Z,101658.88
2022-10-18T13:47:15.675Z,101653.59
2022-10-18T13:50:16.769Z,101647.66
2022-10-18T13:53:13.774Z,101648.19
2022-10-18T13:55:56.301Z,101649.63
2022-10-18T13:58:35.801Z,101642.31
2022-10-18T14:01:18.343Z,101637.69
2022-10-18T14:04:09.374Z,101639.63
2022-10-18T14:06:42.006Z,101634.50
2022-10-18T14:09:26.400Z,101632.25
2022-10-18T14:12:15.324Z,101640.06
2022-10-18T14:14:47.305Z,101636.97
2022-10-18T14:17:25.357Z,101622.91
2022-10-18T14:19:58.520Z,101618.38
2022-10-18T14:22:31.225Z,101618.06
2022-10-18T14:25:00.415Z,101613.59
2022-10-18T14:27:32.497Z,101617.88
2022-10-18T14:30:16.776Z,101610.69
2022-10-18T14:32:47.261Z,101608.41
2022-10-18T14:35:31.974Z,101600.91
2022-10-18T14:38:02.217Z,101599.25
2022-10-18T14:40:37.993Z,101592.22
2022-10-18T14:43:11.941Z,101581.13
2022-10-18T14:45:41.943Z,101591.13
2022-10-18T14:48:16.728Z,101582.78
2022-10-18T14:50:48.636Z,101580.69
2022-10-18T14:53:22.279Z,101583.38
2022-10-18T14:56:07.968Z,101583.78
2022-10-18T14:58:39.442Z,101573.91
2022-10-18T15:01:18.151Z,101571.34
2022-10-18T15:03:47.966Z,101576.38
2022-10-18T15:06:19.591Z,101570.28
2022-10-18T15:08:51.050Z,101572.50
2022-10-18T15:11:20.835Z,101565.59
2022-10-18T15:13:55.250Z,101570.50
2022-10-18T15:16:32.953Z,101567.13
2022-10-18T15:19:04.180Z,101569.63
2022-10-18T15:21:33.530Z,101566.44
2022-10-18T15:24:22.646Z,101567.28
2022-10-18T15:26:53.297Z,101562.91
2022-10-18T15:29:25.068Z,101571.72
2022-10-18T15:31:55.804Z,101572.13
2022-10-18T15:34:27.539Z,101569.66
2022-10-18T15:36:57.969Z,101566.34
2022-10-18T15:39:29.507Z,101558.94
2022-10-18T15:42:00.157Z,101561.47
2022-10-18T15:44:32.427Z,101570.94
2022-10-18T15:47:21.355Z,101561.66
2022-10-18T15:49:56.436Z,101566.44
2022-10-18T15:52:38.457Z,101567.03
2022-10-18T15:55:47.922Z,101570.75
2022-10-18T15:58:22.544Z,101564.75
2022-10-18T16:00:52.082Z,101568.13
2022-10-18T16:03:24.074Z,101560.22
2022-10-18T16:05:58.242Z,101553.91
2022-10-18T16:08:30.577Z,101557.75
2022-10-18T16:10:58.888Z,101563.31
2022-10-18T16:13:27.161Z,101551.31
2022-10-18T16:15:56.836Z,101561.00
2022-10-18T16:18:27.099Z,101557.72
2022-10-18T16:20:55.893Z,101556.97
2022-10-18T16:23:26.328Z,101560.66
2022-10-18T16:25:54.477Z,101562.97
2022-10-18T16:28:24.562Z,101560.91
2022-10-18T16:30:57.255Z,101559.81
2022-10-18T16:33:29.278Z,101559.81
2022-10-18T16:35:57.874Z,101565.09
2022-10-18T16:38:32.513Z,101561.50
2022-10-18T16:41:04.468Z,101560.19
2022-10-18T16:43:33.056Z,101552.09
2022-10-18T16:46:01.687Z,101554.41
2022-10-18T16:48:35.433Z,101554.59
2022-10-18T16:51:04.213Z,101556.78
2022-10-18T16:53:33.311Z,101550.28
2022-10-18T16:56:04.387Z,101548.38
2022-10-18T16:58:34.410Z,101545.69
2022-10-18T17:01:04.217Z,101542.56
2022-10-18T17:03:36.291Z,101546.66
2022-10-18T17:06:04.439Z,101549.81
2022-10-18T17:08:32.658Z,101549.81
2022-10-18T17:11:01.798Z,101539.50
2022-10-18T17:13:29.996Z,101545.00
2022-10-18T17:15:59.412Z,101538.03
2022-10-18T17:18:27.794Z,101545.31
2022-10-18T17:20:59.338Z,101543.19
2022-10-18T17:23:27.559Z,101535.91
2022-10-18T17:26:06.867Z,101533.22
2022-10-18T17:28:43.416Z,101538.03
2022-10-18T17:31:12.141Z,101543.44
2022-10-18T17:33:40.272Z,101530.91
2022-10-18T17:36:09.938Z,101537.41
2022-10-18T17:38:38.461Z,101525.63
2022-10-18T17:41:10.698Z,101525.22
2022-10-18T17:46:08.983Z,101523.03
2022-10-18T17:48:37.373Z,101522.81
2022-10-18T17:51:10.152Z,101524.03
2022-10-18T17:53:38.418Z,101516.66
2022-10-18T17:56:07.931Z,101513.47
2022-10-18T17:58:36.830Z,101512.34
2022-10-18T18:01:12.936Z,101512.34
2022-10-18T18:03:41.820Z,101509.78
2022-10-18T18:06:20.081Z,101506.28
2022-10-18T18:08:49.146Z,101506.09
2022-10-18T18:11:18.365Z,101490.66
2022-10-18T18:13:46.797Z,101495.50
2022-10-18T18:16:17.201Z,101496.28
2022-10-18T18:18:46.214Z,101491.38
2022-10-18T18:21:14.670Z,101492.13
2022-10-18T18:23:44.719Z,101482.25
2022-10-18T18:26:13.318Z,101477.47
2022-10-18T18:28:41.569Z,101479.34
2022-10-18T18:31:10.711Z,101481.38
2022-10-18T18:33:39.339Z,101476.09
2022-10-18T18:36:08.746Z,101470.00
2022-10-18T18:38:39.751Z,101470.75
2022-10-18T18:41:12.101Z,101462.97
2022-10-18T18:43:41.695Z,101465.50
2022-10-18T18:46:10.337Z,101460.91
2022-10-18T18:48:38.829Z,101461.44
2022-10-18T18:51:10.473Z,101454.97
2022-10-18T18:53:40.590Z,101455.28
2022-10-18T18:56:12.564Z,101447.22
2022-10-18T18:58:42.610Z,101455.59
2022-10-18T19:01:13.857Z,101452.47
2022-10-18T19:03:43.103Z,101446.69
2022-10-18T19:06:13.899Z,101440.09
2022-10-18T19:08:42.090Z,101446.09
2022-10-18T19:11:14.783Z,101434.41
2022-10-18T19:13:43.525Z,101437.22
2022-10-18T19:16:19.073Z,101437.41
2022-10-18T19:18:52.730Z,101427.47
2022-10-18T19:21:20.891Z,101420.75
2022-10-18T19:23:50.392Z,101427.34
2022-10-18T19:26:30.077Z,101432.00
2022-10-18T19:29:03.657Z,101422.63
2022-10-18T19:31:31.854Z,101418.50
2022-10-18T19:34:00.186Z,101420.19
2022-10-18T19:36:29.814Z,101413.00
2022-10-18T19:38:58.140Z,101417.47
2022-10-18T19:41:28.856Z,101406.97
2022-10-18T19:43:57.882Z,101398.00
2022-10-18T19:46:26.507Z,101400.00
2022-10-18T19:48:55.389Z,101408.41
2022-10-18T19:51:27.715Z,101404.50
2022-10-18T19:53:57.139Z,101412.94
2022-10-18T19:56:28.076Z,101401.19
2022-10-18T19:58:57.466Z,101392.31
2022-10-18T20:01:26.277Z,101392.91
2022-10-18T20:03:54.769Z,101389.66
2022-10-18T20:06:23.196Z,101387.94
2022-10-18T20:08:51.798Z,101392.00
2022-10-18T20:11:23.622Z,101377.97
2022-10-18T20:13:53.772Z,101378.56
2022-10-18T20:16:27.936Z,101385.59
2022-10-18T20:18:57.987Z,101373.88
2022-10-18T20:21:27.522Z,101367.66
2022-10-18T20:23:55.743Z,101367.22
2022-10-18T20:26:25.616Z,101362.97
2022-10-18T20:28:57.942Z,101357.16
2022-10-18T20:31:27.876Z,101357.88
2022-10-18T20:33:57.703Z,101348.94
2022-10-18T20:36:26.856Z,101346.31
2022-10-18T20:38:56.093Z,101338.84
2022-10-18T20:41:26.752Z,101335.66
2022-10-18T20:43:57.693Z,101339.81
2022-10-18T20:46:26.276Z,101332.25
2022-10-18T20:48:55.181Z,101333.84
2022-10-18T20:51:24.362Z,101318.66
2022-10-18T20:53:53.645Z,101318.81
2022-10-18T20:56:24.093Z,101300.00
2022-10-18T20:58:54.826Z,101303.38
2022-10-18T21:01:26.093Z,101308.09
2022-10-18T21:03:56.114Z,101299.75
2022-10-18T21:06:28.031Z,101290.09
2022-10-18T21:08:58.030Z,101284.81
2022-10-18T21:11:27.593Z,101286.66
2022-10-18T21:13:57.634Z,101285.09
2022-10-18T21:16:27.565Z,101271.44
2022-10-18T21:18:55.950Z,101266.44
2022-10-18T21:21:25.879Z,101264.03
2022-10-18T21:23:55.046Z,101267.81
2022-10-18T21:26:24.994Z,101253.88
2022-10-18T21:28:54.573Z,101259.00
2022-10-18T21:31:24.962Z,101255.25
2022-10-18T21:33:57.217Z,101252.34
2022-10-18T21:36:26.670Z,101247.53
2022-10-18T21:38:54.883Z,101240.06
2022-10-18T21:41:23.762Z,101241.97
2022-10-18T21:43:54.260Z,101232.84
2022-10-18T21:46:26.271Z,101233.91
2022-10-18T21:48:57.315Z,101225.06
2022-10-18T21:51:27.715Z,101226.44
2022-10-18T21:53:57.836Z,101218.09
2022-10-18T21:56:28.058Z,101207.16
2022-10-18T21:58:56.858Z,101214.69
2022-10-18T22:01:27.048Z,101204.25
2022-10-18T22:03:58.007Z,101210.56
2022-10-18T22:06:29.582Z,101204.41
2022-10-18T22:08:59.985Z,101200.47
2022-10-18T22:11:30.656Z,101204.53
2022-10-18T22:13:59.366Z,101207.00
2022-10-18T22:16:27.910Z,101197.94
2022-10-18T22:19:01.776Z,101196.84
2022-10-18T22:21:30.611Z,101191.66
2022-10-18T22:23:59.933Z,101178.22
2022-10-18T22:26:30.653Z,101183.38
2022-10-18T22:29:01.187Z,101179.31
2022-10-18T22:31:32.626Z,101171.47
2022-10-18T22:34:04.344Z,101168.38
2022-10-18T22:36:32.841Z,101164.72
2022-10-18T22:39:01.103Z,101155.69
2022-10-18T22:41:29.435Z,101155.97
2022-10-18T22:43:59.767Z,101161.97
2022-10-18T22:46:30.980Z,101148.13
2022-10-18T22:48:59.165Z,101148.63
2022-10-18T22:51:29.009Z,101146.19
2022-10-18T22:53:57.530Z,101145.81
2022-10-18T22:56:26.000Z,101146.09
2022-10-18T22:58:54.281Z,101136.25
2022-10-18T23:01:24.374Z,101142.28
2022-10-18T23:03:57.086Z,101133.50
2022-10-18T23:06:26.831Z,101138.44
2022-10-18T23:08:58.511Z,101124.63
2022-10-18T23:11:28.915Z,101124.56
2022-10-18T23:13:57.341Z,101118.91
2022-10-18T23:16:26.069Z,101112.75
2022-10-18T23:18:56.043Z,101111.38
2022-10-18T23:21:25.795Z,101114.06
2022-10-18T23:23:56.048Z,101112.44
2022-10-18T23:26:27.045Z,101095.06
2022-10-18T23:28:55.626Z,101089.75
2022-10-18T23:31:26.080Z,101091.06
2022-10-18T23:33:56.610Z,101102.09
2022-10-18T23:36:25.988Z,101086.00
2022-10-18T23:38:56.335Z,101083.13
2022-10-18T23:41:24.430Z,101078.84
2022-10-18T23:43:52.829Z,101084.06
2022-10-18T23:46:21.561Z,101082.75
2022-10-18T23:48:50.144Z,101075.28
2022-10-18T23:51:18.815Z,101079.66
2022-10-18T23:53:47.241Z,101081.31
2022-10-18T23:56:17.677Z,101075.16
2022-10-18T23:58:46.496Z,101073.75
